KCXO/CXO METAR and TAF weather

Enter ICAO airport designator
Station Type Date Time Source
KCXO METAR 2021/03/05 12:53 UTC NOAA

KCXO 051253Z 11003KT 8SM OVC032 12/10 A2998 RMK AO2 SLP152 T01170100


Station Type Date Time Source
KCXO Decoded METAR 2021/03/05 12:53 UTC NOAA

LONE STAR EXECUTIVE AIRPORT, TX, United States (KCXO) 30-21N 95-25W 75M
Mar 05, 2021 - 07:53 AM EST / 2021.03.05 1253 UTC
Wind: from the ESE (110 degrees) at 3 MPH (3 KT):0
Visibility: 8 mile(s):0
Sky conditions: overcast
Temperature: 53.1 F (11.7 C)
Dew Point: 50.0 F (10.0 C)
Relative Humidity: 89%
Pressure (altimeter): 29.98 in. Hg (1015 hPa)
ob: KCXO 051253Z 11003KT 8SM OVC032 12/10 A2998 RMK AO2 SLP152 T01170100
cycle: 13

Station Type Date Time Source
KCXO TAF 2021/03/05 12:24 UTC NOAA

TAF KCXO 051121Z 0512/0612 VRB04KT P6SM OVC025
TEMPO 0512/0515 4SM BR
FM051600 14005KT P6SM VCSH OVC014
FM052000 17007KT P6SM BKN017
FM060100 32007KT P6SM BKN025
FM060600 03008KT P6SM BKN015

Example: see airport list